createdAt,value
2019-03-18T00:00:33.961Z,21.10
2019-03-18T00:03:20.304Z,21.10
2019-03-18T00:06:07.011Z,21.10
2019-03-18T00:08:53.249Z,21.10
2019-03-18T00:11:39.734Z,21.10
2019-03-18T00:14:25.958Z,21.00
2019-03-18T00:17:12.414Z,21.10
2019-03-18T00:19:59.972Z,21.10
2019-03-18T00:22:46.207Z,21.00
2019-03-18T00:25:32.492Z,21.00
2019-03-18T00:28:19.049Z,21.00
2019-03-18T00:31:05.066Z,21.00
2019-03-18T00:33:51.179Z,21.00
2019-03-18T00:36:37.538Z,21.00
2019-03-18T00:39:24.139Z,21.00
2019-03-18T00:42:10.407Z,21.00
2019-03-18T00:44:56.356Z,21.00
2019-03-18T00:47:42.551Z,21.00
2019-03-18T00:50:28.386Z,21.00
2019-03-18T00:53:14.735Z,21.00
2019-03-18T00:56:01.347Z,21.00
2019-03-18T00:58:47.712Z,21.00
2019-03-18T01:01:33.549Z,21.00
2019-03-18T01:04:20.808Z,21.00
2019-03-18T01:07:07.272Z,21.00
2019-03-18T01:09:53.535Z,21.00
2019-03-18T01:12:39.775Z,21.00
2019-03-18T01:15:28.252Z,21.00
2019-03-18T01:18:13.496Z,21.00
2019-03-18T01:20:59.675Z,21.00
2019-03-18T01:23:46.047Z,20.90
2019-03-18T01:26:31.859Z,21.00
2019-03-18T01:29:18.167Z,21.00
2019-03-18T01:32:04.553Z,21.00
2019-03-18T01:34:50.869Z,20.90
2019-03-18T01:37:37.269Z,20.90
2019-03-18T01:40:23.647Z,20.90
2019-03-18T01:43:09.958Z,20.90
2019-03-18T01:45:56.297Z,20.90
2019-03-18T01:48:42.591Z,20.90
2019-03-18T01:51:28.851Z,20.90
2019-03-18T01:54:15.134Z,20.90
2019-03-18T01:57:01.461Z,20.90
2019-03-18T01:59:47.736Z,20.90
2019-03-18T02:02:34.294Z,20.80
2019-03-18T02:05:20.609Z,20.80
2019-03-18T02:08:07.012Z,20.80
2019-03-18T02:10:53.722Z,20.80
2019-03-18T02:13:39.776Z,20.80
2019-03-18T02:16:26.023Z,20.80
2019-03-18T02:19:12.180Z,20.80
2019-03-18T02:21:57.907Z,20.80
2019-03-18T02:24:44.102Z,20.80
2019-03-18T02:27:30.463Z,20.80
2019-03-18T02:30:16.762Z,20.80
2019-03-18T02:33:03.201Z,20.80
2019-03-18T02:35:49.384Z,20.80
2019-03-18T02:38:35.700Z,20.80
2019-03-18T02:41:22.734Z,20.80
2019-03-18T02:44:08.920Z,20.80
2019-03-18T02:46:55.167Z,20.80
2019-03-18T02:49:41.738Z,20.80
2019-03-18T02:52:28.412Z,20.80
2019-03-18T02:55:14.628Z,20.80
2019-03-18T02:58:02.157Z,20.70
2019-03-18T03:00:48.306Z,20.80
2019-03-18T03:03:37.006Z,20.70
2019-03-18T03:06:23.021Z,20.70
2019-03-18T03:09:09.468Z,20.70
2019-03-18T03:11:55.717Z,20.70
2019-03-18T03:14:42.318Z,20.70
2019-03-18T03:17:28.497Z,20.70
2019-03-18T03:20:14.532Z,20.70
2019-03-18T03:23:01.236Z,20.70
2019-03-18T03:25:47.603Z,20.70
2019-03-18T03:28:33.820Z,20.70
2019-03-18T03:31:20.704Z,20.70
2019-03-18T03:34:13.030Z,20.70
2019-03-18T03:36:55.148Z,20.70
2019-03-18T03:39:41.728Z,20.70
2019-03-18T03:42:27.572Z,20.70
2019-03-18T03:45:15.404Z,20.60
2019-03-18T03:48:01.872Z,20.70
2019-03-18T03:50:48.237Z,20.70
2019-03-18T03:53:34.902Z,20.60
2019-03-18T03:56:21.708Z,20.60
2019-03-18T03:59:07.942Z,20.60
2019-03-18T04:01:53.989Z,20.60
2019-03-18T04:04:40.434Z,20.60
2019-03-18T04:07:26.803Z,20.60
2019-03-18T04:10:13.586Z,20.60
2019-03-18T04:12:59.992Z,20.60
2019-03-18T04:15:46.185Z,20.60
2019-03-18T04:18:32.500Z,20.60
2019-03-18T04:21:19.093Z,20.60
2019-03-18T04:24:05.289Z,20.60
2019-03-18T04:26:51.192Z,20.60
2019-03-18T04:29:38.680Z,20.60
2019-03-18T04:32:25.201Z,20.60
2019-03-18T04:35:11.583Z,20.50
2019-03-18T04:37:58.053Z,20.50
2019-03-18T04:40:44.700Z,20.60
2019-03-18T04:43:31.078Z,20.50
2019-03-18T04:46:17.389Z,20.50
2019-03-18T04:49:03.747Z,20.60
2019-03-18T04:51:49.720Z,20.60
2019-03-18T04:54:36.144Z,20.60
2019-03-18T04:57:22.511Z,20.60
2019-03-18T05:00:09.472Z,20.60
2019-03-18T05:02:55.463Z,20.50
2019-03-18T05:05:42.274Z,20.60
2019-03-18T05:08:28.260Z,20.50
2019-03-18T05:11:14.703Z,20.50
2019-03-18T05:14:01.017Z,20.60
2019-03-18T05:16:47.465Z,20.60
2019-03-18T05:19:33.645Z,20.60
2019-03-18T05:22:20.293Z,20.60
2019-03-18T05:25:07.035Z,20.60
2019-03-18T05:27:53.300Z,20.60
2019-03-18T05:30:39.544Z,20.60
2019-03-18T05:33:25.853Z,20.60
2019-03-18T05:36:12.178Z,20.60
2019-03-18T05:38:58.629Z,20.60
2019-03-18T05:41:44.991Z,20.60
2019-03-18T05:44:31.712Z,20.60
2019-03-18T05:47:17.595Z,20.60
2019-03-18T05:50:04.184Z,20.60
2019-03-18T05:52:50.303Z,20.60
2019-03-18T05:55:37.175Z,20.70
2019-03-18T05:58:23.339Z,20.60
2019-03-18T06:01:09.863Z,20.70
2019-03-18T06:03:56.052Z,20.70
2019-03-18T06:06:42.530Z,20.70
2019-03-18T06:09:29.203Z,20.60
2019-03-18T06:12:15.527Z,20.60
2019-03-18T06:15:01.760Z,20.60
2019-03-18T06:17:52.600Z,20.60
2019-03-18T06:20:36.085Z,20.60
2019-03-18T06:23:22.290Z,20.60
2019-03-18T06:26:08.757Z,20.60
2019-03-18T06:28:55.253Z,20.60
2019-03-18T06:31:41.376Z,20.60
2019-03-18T06:34:27.395Z,20.60
2019-03-18T06:37:14.211Z,20.60
2019-03-18T06:40:00.344Z,20.60
2019-03-18T06:42:46.503Z,20.60
2019-03-18T06:45:33.287Z,20.60
2019-03-18T06:48:19.055Z,20.60
2019-03-18T06:51:05.991Z,20.60
2019-03-18T06:53:52.352Z,20.60
2019-03-18T06:56:39.329Z,20.70
2019-03-18T06:59:25.715Z,20.70
2019-03-18T07:02:11.599Z,20.70
2019-03-18T07:04:57.924Z,20.70
2019-03-18T07:07:44.443Z,20.70
2019-03-18T07:10:30.987Z,20.70
2019-03-18T07:13:17.178Z,20.70
2019-03-18T07:16:03.577Z,20.70
2019-03-18T07:18:50.120Z,20.70
2019-03-18T07:21:36.452Z,20.60
2019-03-18T07:24:23.444Z,20.60
2019-03-18T07:27:09.660Z,20.60
2019-03-18T07:29:55.688Z,20.60
2019-03-18T07:32:42.007Z,20.60
2019-03-18T07:35:28.316Z,20.60
2019-03-18T07:38:14.703Z,20.60
2019-03-18T07:41:01.242Z,20.70
2019-03-18T07:43:47.567Z,20.70
2019-03-18T07:46:34.187Z,20.70
2019-03-18T07:49:20.400Z,20.80
2019-03-18T07:52:06.960Z,20.80
2019-03-18T07:54:53.451Z,20.80
2019-03-18T07:57:39.691Z,20.80
2019-03-18T08:00:25.946Z,20.80
2019-03-18T08:03:12.339Z,20.80
2019-03-18T08:05:58.492Z,20.80
2019-03-18T08:08:44.862Z,20.90
2019-03-18T08:11:31.223Z,20.90
2019-03-18T08:14:17.868Z,20.90
2019-03-18T08:17:03.920Z,20.90
2019-03-18T08:19:50.471Z,20.90
2019-03-18T08:22:36.624Z,20.90
2019-03-18T08:25:22.559Z,20.90
2019-03-18T08:28:08.883Z,20.80
2019-03-18T08:30:55.192Z,20.80
2019-03-18T08:33:41.152Z,20.80
2019-03-18T08:36:27.541Z,20.80
2019-03-18T08:39:14.764Z,20.80
2019-03-18T08:42:01.015Z,20.80
2019-03-18T08:44:47.547Z,20.80
2019-03-18T08:47:33.984Z,20.80
2019-03-18T08:50:20.548Z,20.80
2019-03-18T08:53:06.791Z,20.90
2019-03-18T08:55:52.999Z,20.90
2019-03-18T08:58:39.703Z,20.90
2019-03-18T09:01:26.055Z,20.90
2019-03-18T09:04:12.493Z,20.90
2019-03-18T09:06:59.841Z,20.90
2019-03-18T09:09:45.843Z,20.90
2019-03-18T09:12:32.275Z,20.90
2019-03-18T09:15:18.710Z,21.00
2019-03-18T09:18:04.903Z,21.00
2019-03-18T09:23:44.143Z,21.50
2019-03-18T09:26:30.712Z,21.90
2019-03-18T09:29:16.903Z,22.20
2019-03-18T09:32:03.012Z,22.50
2019-03-18T09:34:50.439Z,22.70
2019-03-18T09:37:36.331Z,22.80
2019-03-18T09:40:22.659Z,22.80
2019-03-18T09:43:08.893Z,22.70
2019-03-18T09:45:55.100Z,22.60
2019-03-18T09:48:41.497Z,22.50
2019-03-18T09:51:27.708Z,22.30
2019-03-18T09:54:14.123Z,22.20
2019-03-18T09:57:00.591Z,22.20
2019-03-18T09:59:46.385Z,22.10
2019-03-18T10:02:32.802Z,22.10
2019-03-18T10:05:19.309Z,22.20
2019-03-18T10:08:05.551Z,22.30
2019-03-18T10:10:51.524Z,22.40
2019-03-18T10:13:39.010Z,22.50
2019-03-18T10:16:25.637Z,22.60
2019-03-18T10:19:11.905Z,22.60
2019-03-18T10:21:58.536Z,22.70
2019-03-18T10:24:44.812Z,22.80
2019-03-18T10:27:30.669Z,22.80
2019-03-18T10:30:16.156Z,22.80
2019-03-18T10:33:02.283Z,22.80
2019-03-18T10:35:48.799Z,22.80
2019-03-18T10:38:35.058Z,22.70
2019-03-18T10:41:21.380Z,22.70
2019-03-18T10:44:07.844Z,22.60
2019-03-18T10:47:01.371Z,22.60
2019-03-18T10:49:47.815Z,22.60
2019-03-18T10:52:35.175Z,22.60
2019-03-18T10:55:22.619Z,22.60
2019-03-18T10:58:08.809Z,22.50
2019-03-18T11:00:54.992Z,22.50
2019-03-18T11:03:41.131Z,22.50
2019-03-18T11:06:27.232Z,22.60
2019-03-18T11:09:13.012Z,22.60
2019-03-18T11:11:59.623Z,22.60
2019-03-18T11:14:45.822Z,22.50
2019-03-18T11:17:32.213Z,22.60
2019-03-18T11:20:18.946Z,22.50
2019-03-18T11:23:04.851Z,22.50
2019-03-18T11:25:50.896Z,22.40
2019-03-18T11:28:37.206Z,22.40
2019-03-18T11:31:23.471Z,22.30
2019-03-18T11:34:09.764Z,22.30
2019-03-18T11:36:56.072Z,22.20
2019-03-18T11:39:42.182Z,22.20
2019-03-18T11:42:28.686Z,22.20
2019-03-18T11:45:15.251Z,22.30
2019-03-18T11:48:01.529Z,22.30
2019-03-18T11:50:48.232Z,22.30
2019-03-18T11:53:34.471Z,22.20
2019-03-18T11:56:21.787Z,22.20
2019-03-18T11:59:08.290Z,22.10
2019-03-18T12:01:54.563Z,22.10
2019-03-18T12:04:40.227Z,22.00
2019-03-18T12:07:26.215Z,22.00
2019-03-18T12:10:14.084Z,21.90
2019-03-18T12:13:00.343Z,21.90
2019-03-18T12:15:46.635Z,21.90
2019-03-18T12:18:33.284Z,21.90
2019-03-18T12:21:19.708Z,21.80
2019-03-18T12:24:06.291Z,21.90
2019-03-18T12:26:52.125Z,21.90
2019-03-18T12:29:38.031Z,21.90
2019-03-18T12:32:25.349Z,21.90
2019-03-18T12:35:11.739Z,21.90
2019-03-18T12:38:04.613Z,21.90
2019-03-18T12:40:50.686Z,21.90
2019-03-18T12:43:38.730Z,21.90
2019-03-18T12:46:25.404Z,21.90
2019-03-18T12:49:11.656Z,21.90
2019-03-18T12:51:57.715Z,21.80
2019-03-18T12:54:43.995Z,21.80
2019-03-18T12:57:29.909Z,21.80
2019-03-18T13:00:18.379Z,21.80
2019-03-18T13:03:05.179Z,21.80
2019-03-18T13:05:51.192Z,21.80
2019-03-18T13:08:37.735Z,21.70
2019-03-18T13:11:25.031Z,21.80
2019-03-18T13:14:11.702Z,21.80
2019-03-18T13:16:58.013Z,21.80
2019-03-18T13:19:44.375Z,21.80
2019-03-18T13:22:30.738Z,21.80
2019-03-18T13:25:17.213Z,21.80
2019-03-18T13:28:03.586Z,21.80
2019-03-18T13:30:50.483Z,21.80
2019-03-18T13:33:36.219Z,21.80
2019-03-18T13:36:25.316Z,21.80
2019-03-18T13:39:10.415Z,21.80
2019-03-18T13:41:56.732Z,21.70
2019-03-18T13:44:43.159Z,21.70
2019-03-18T13:47:31.039Z,21.70
2019-03-18T13:50:17.741Z,21.70
2019-03-18T13:53:04.887Z,21.60
2019-03-18T13:55:51.267Z,21.60
2019-03-18T13:58:37.736Z,21.60
2019-03-18T14:01:24.033Z,21.60
2019-03-18T14:04:11.412Z,21.60
2019-03-18T14:06:57.764Z,21.60
2019-03-18T14:09:44.861Z,21.60
2019-03-18T14:12:31.108Z,21.50
2019-03-18T14:15:17.425Z,21.50
2019-03-18T14:18:03.749Z,21.50
2019-03-18T14:20:50.568Z,21.50
2019-03-18T14:23:36.791Z,21.50
2019-03-18T14:26:23.155Z,21.50
2019-03-18T14:29:09.056Z,21.50
2019-03-18T14:31:55.393Z,21.50
2019-03-18T14:34:41.839Z,21.60
2019-03-18T14:37:28.679Z,21.60
2019-03-18T14:40:15.018Z,21.60
2019-03-18T14:43:01.216Z,21.60
2019-03-18T14:45:47.708Z,21.60
2019-03-18T14:48:34.036Z,21.60
2019-03-18T14:51:20.539Z,21.60
2019-03-18T14:54:07.044Z,21.60
2019-03-18T14:56:53.319Z,21.60
2019-03-18T14:59:39.795Z,21.60
2019-03-18T15:02:26.214Z,21.60
2019-03-18T15:05:12.983Z,21.60
2019-03-18T15:07:59.061Z,21.60
2019-03-18T15:10:44.963Z,21.60
2019-03-18T15:13:31.457Z,21.50
2019-03-18T15:16:17.890Z,21.50
2019-03-18T15:19:04.175Z,21.50
2019-03-18T15:21:58.411Z,21.50
2019-03-18T15:24:38.432Z,21.40
2019-03-18T15:27:24.842Z,21.40
2019-03-18T15:30:13.178Z,21.40
2019-03-18T15:33:00.499Z,21.40
2019-03-18T15:35:46.809Z,21.40
2019-03-18T15:38:33.117Z,21.40
2019-03-18T15:41:19.455Z,21.40
2019-03-18T15:44:05.953Z,21.30
2019-03-18T15:46:52.112Z,21.30
2019-03-18T15:49:38.787Z,21.30
2019-03-18T15:52:25.284Z,21.30
2019-03-18T15:55:12.072Z,21.30
2019-03-18T15:57:58.375Z,21.30
2019-03-18T16:00:45.825Z,21.30
2019-03-18T16:03:32.083Z,21.30
2019-03-18T16:06:18.528Z,21.30
2019-03-18T16:09:06.946Z,21.30
2019-03-18T16:11:53.288Z,21.20
2019-03-18T16:14:39.708Z,21.20
2019-03-18T16:17:26.855Z,21.20
2019-03-18T16:20:13.495Z,21.20
2019-03-18T16:23:00.771Z,21.20
2019-03-18T16:25:47.116Z,21.20
2019-03-18T16:28:33.179Z,21.20
2019-03-18T16:31:19.496Z,21.20
2019-03-18T16:34:05.937Z,21.20
2019-03-18T16:36:52.120Z,21.20
2019-03-18T16:39:38.263Z,21.10
2019-03-18T16:42:24.660Z,21.10
2019-03-18T16:45:12.303Z,21.10
2019-03-18T16:47:58.689Z,21.10
2019-03-18T16:50:44.856Z,21.10
2019-03-18T16:53:31.257Z,21.00
2019-03-18T16:56:17.589Z,21.00
2019-03-18T16:59:03.875Z,21.00
2019-03-18T17:01:50.219Z,21.00
2019-03-18T17:04:36.067Z,21.00
2019-03-18T17:07:22.725Z,21.00
2019-03-18T17:10:09.559Z,21.00
2019-03-18T17:12:55.959Z,20.90
2019-03-18T17:15:42.190Z,20.90
2019-03-18T17:18:28.508Z,20.90
2019-03-18T17:21:15.118Z,20.90
2019-03-18T17:24:01.658Z,20.90
2019-03-18T17:26:48.008Z,20.90
2019-03-18T17:29:34.751Z,20.80
2019-03-18T17:32:21.115Z,20.90
2019-03-18T17:35:07.151Z,20.80
2019-03-18T17:37:53.520Z,20.80
2019-03-18T17:40:39.767Z,20.80
2019-03-18T17:43:26.103Z,20.80
2019-03-18T17:46:12.621Z,20.80
2019-03-18T17:48:58.885Z,20.80
2019-03-18T17:51:45.568Z,20.80
2019-03-18T17:54:31.934Z,20.80
2019-03-18T17:57:18.692Z,20.80
2019-03-18T18:00:06.640Z,20.80
2019-03-18T18:02:53.273Z,20.70
2019-03-18T18:05:39.506Z,20.70
2019-03-18T18:08:26.456Z,20.80
2019-03-18T18:11:12.670Z,20.70
2019-03-18T18:13:59.500Z,20.70
2019-03-18T18:16:46.201Z,20.80
2019-03-18T18:19:33.783Z,20.70
2019-03-18T18:22:19.733Z,20.70
2019-03-18T18:25:07.175Z,20.70
2019-03-18T18:27:53.328Z,20.80
2019-03-18T18:30:39.688Z,20.70
2019-03-18T18:33:25.960Z,20.80
2019-03-18T18:36:12.688Z,20.70
2019-03-18T18:38:58.932Z,20.70
2019-03-18T18:41:46.498Z,20.70
2019-03-18T18:44:32.880Z,20.70
2019-03-18T18:47:19.256Z,20.70
2019-03-18T18:50:06.503Z,20.70
2019-03-18T18:52:52.483Z,20.70
2019-03-18T18:55:38.789Z,20.70
2019-03-18T18:58:24.943Z,20.70
2019-03-18T19:01:13.317Z,20.70
2019-03-18T19:04:00.628Z,20.70
2019-03-18T19:06:46.688Z,20.70
2019-03-18T19:09:33.503Z,20.70
2019-03-18T19:12:19.631Z,20.70
2019-03-18T19:15:08.703Z,20.70
2019-03-18T19:17:54.795Z,20.70
2019-03-18T19:20:41.135Z,20.70
2019-03-18T19:23:37.276Z,20.70
2019-03-18T19:26:16.257Z,20.70
2019-03-18T19:29:02.665Z,20.70
2019-03-18T19:31:49.255Z,20.70
2019-03-18T19:34:36.287Z,20.70
2019-03-18T19:37:22.602Z,20.70
2019-03-18T19:40:12.241Z,20.70
2019-03-18T19:42:58.379Z,20.70
2019-03-18T19:45:45.108Z,20.70
2019-03-18T19:48:34.201Z,20.70
2019-03-18T19:51:19.471Z,20.70
2019-03-18T19:54:06.141Z,20.70
2019-03-18T19:56:53.609Z,20.70
2019-03-18T19:59:40.172Z,20.70
2019-03-18T20:02:26.613Z,20.60
2019-03-18T20:05:15.269Z,20.60
2019-03-18T20:08:01.273Z,20.60
2019-03-18T20:10:47.653Z,20.60
2019-03-18T20:13:33.828Z,20.60
2019-03-18T20:16:20.423Z,20.70
2019-03-18T20:19:06.809Z,20.60
2019-03-18T20:21:53.210Z,20.60
2019-03-18T20:24:39.476Z,20.60
2019-03-18T20:27:26.144Z,20.70
2019-03-18T20:30:14.712Z,20.60
2019-03-18T20:33:00.628Z,20.70
2019-03-18T20:35:46.971Z,20.70
2019-03-18T20:38:33.280Z,20.70
2019-03-18T20:41:19.585Z,20.70
2019-03-18T20:44:06.398Z,20.70
2019-03-18T20:46:52.671Z,20.70
2019-03-18T20:49:39.399Z,20.70
2019-03-18T20:52:25.818Z,20.70
2019-03-18T20:55:12.738Z,20.70
2019-03-18T20:58:00.033Z,20.70
2019-03-18T21:00:46.545Z,20.70
2019-03-18T21:03:32.777Z,20.70
2019-03-18T21:06:19.340Z,20.70
2019-03-18T21:09:07.140Z,20.70
2019-03-18T21:11:53.696Z,20.70
2019-03-18T21:14:40.082Z,20.80
2019-03-18T21:17:26.911Z,20.80
2019-03-18T21:20:13.956Z,20.80
2019-03-18T21:23:00.014Z,20.80
2019-03-18T21:25:46.596Z,20.80
2019-03-18T21:28:41.198Z,20.80
2019-03-18T21:31:21.075Z,20.80
2019-03-18T21:34:07.511Z,20.80
2019-03-18T21:36:53.729Z,20.80
2019-03-18T21:39:40.189Z,20.80
2019-03-18T21:42:26.639Z,20.80
2019-03-18T21:45:15.114Z,20.80
2019-03-18T21:48:01.080Z,20.80
2019-03-18T21:50:47.358Z,20.80
2019-03-18T21:53:33.628Z,20.80
2019-03-18T21:56:20.457Z,20.80
2019-03-18T21:59:07.084Z,20.80
2019-03-18T22:01:53.759Z,20.80
2019-03-18T22:04:40.056Z,20.80
2019-03-18T22:07:26.072Z,20.80
2019-03-18T22:10:13.312Z,20.80
2019-03-18T22:12:59.863Z,20.80
2019-03-18T22:15:46.472Z,20.80
2019-03-18T22:18:32.476Z,20.80
2019-03-18T22:21:18.792Z,20.80
2019-03-18T22:24:05.316Z,20.70
2019-03-18T22:26:51.499Z,20.80
2019-03-18T22:29:37.908Z,20.80
2019-03-18T22:32:25.044Z,20.80
2019-03-18T22:35:11.920Z,20.70
2019-03-18T22:37:57.972Z,20.70
2019-03-18T22:40:44.391Z,20.70
2019-03-18T22:43:30.672Z,20.80
2019-03-18T22:46:17.365Z,20.80
2019-03-18T22:49:03.679Z,20.80
2019-03-18T22:51:50.341Z,20.80
2019-03-18T22:54:36.733Z,20.80
2019-03-18T22:57:23.297Z,20.80
2019-03-18T23:00:20.405Z,20.80
2019-03-18T23:03:08.437Z,20.80
2019-03-18T23:05:54.692Z,20.80
2019-03-18T23:08:41.578Z,20.80
2019-03-18T23:11:30.694Z,20.80
2019-03-18T23:14:16.969Z,20.80
2019-03-18T23:17:03.245Z,20.80
2019-03-18T23:19:49.749Z,20.80
2019-03-18T23:22:36.085Z,20.80
2019-03-18T23:25:23.687Z,20.80
2019-03-18T23:28:09.936Z,20.80
2019-03-18T23:30:56.775Z,20.80
2019-03-18T23:33:43.002Z,20.80
2019-03-18T23:36:30.092Z,20.80
2019-03-18T23:39:16.263Z,20.70
2019-03-18T23:42:02.672Z,20.80
2019-03-18T23:44:49.168Z,20.70
2019-03-18T23:47:35.474Z,20.70
2019-03-18T23:50:21.842Z,20.70
2019-03-18T23:53:08.277Z,20.70
2019-03-18T23:55:54.409Z,20.70
2019-03-18T23:58:40.600Z,20.70
